createdAt,value
2023-03-24T00:00:40.533Z,2
2023-03-24T00:04:40.689Z,1.62
2023-03-24T00:08:40.481Z,1.27
2023-03-24T00:12:40.240Z,2.45
2023-03-24T00:16:40.551Z,2.92
2023-03-24T00:20:40.507Z,2.1
2023-03-24T00:24:40.525Z,4.03
2023-03-24T00:28:40.424Z,2.1
2023-03-24T00:32:40.533Z,1.45
2023-03-24T00:36:40.606Z,2.37
2023-03-24T00:40:40.544Z,1.65
2023-03-24T00:44:40.467Z,4.2
2023-03-24T00:48:40.658Z,3.03
2023-03-24T00:52:40.414Z,2.93
2023-03-24T00:56:41.150Z,1.12
2023-03-24T01:00:39.429Z,1.17
2023-03-24T01:04:40.611Z,3.7
2023-03-24T01:08:40.519Z,1.33
2023-03-24T01:12:40.548Z,1.92
2023-03-24T01:16:40.292Z,2.08
2023-03-24T01:20:40.526Z,1.33
2023-03-24T01:24:40.502Z,1.33
2023-03-24T01:28:40.432Z,1.83
2023-03-24T01:32:40.714Z,3
2023-03-24T01:36:40.532Z,1.62
2023-03-24T01:40:40.569Z,7.72
2023-03-24T01:44:40.429Z,1.05
2023-03-24T01:48:40.482Z,5.75
2023-03-24T01:52:40.443Z,1.35
2023-03-24T01:56:40.592Z,5.57
2023-03-24T02:00:40.458Z,1.55
2023-03-24T02:04:39.582Z,2.12
2023-03-24T02:08:40.564Z,1.65
2023-03-24T02:12:40.639Z,2.42
2023-03-24T02:16:40.429Z,3.25
2023-03-24T02:20:40.694Z,6.4
2023-03-24T02:24:40.550Z,2.37
2023-03-24T02:28:40.482Z,4.22
2023-03-24T02:32:40.566Z,1.7
2023-03-24T02:36:40.339Z,5.75
2023-03-24T02:40:40.495Z,2.28
2023-03-24T02:44:41.110Z,4.87
2023-03-24T02:48:40.843Z,8.57
2023-03-24T02:52:40.856Z,3.25
2023-03-24T02:56:40.516Z,2.05
2023-03-24T03:00:39.783Z,1.83
2023-03-24T03:04:40.563Z,3.83
2023-03-24T03:08:40.327Z,2.55
2023-03-24T03:12:40.585Z,2.83
2023-03-24T03:16:40.769Z,2.78
2023-03-24T03:20:40.517Z,1.7
2023-03-24T03:24:40.527Z,4.8
2023-03-24T03:28:40.571Z,2.87
2023-03-24T03:32:40.724Z,4.75
2023-03-24T03:36:40.500Z,3.28
2023-03-24T03:40:40.857Z,3.5
2023-03-24T03:44:40.494Z,2.12
2023-03-24T03:48:40.537Z,4.78
2023-03-24T03:52:40.438Z,3.55
2023-03-24T03:56:40.327Z,4.68
2023-03-24T04:00:40.495Z,2.83
2023-03-24T04:04:40.686Z,3.67
2023-03-24T04:08:40.397Z,2.35
2023-03-24T04:12:40.467Z,3.22
2023-03-24T04:16:40.542Z,3.4
2023-03-24T04:20:39.589Z,4.3
2023-03-24T04:24:40.594Z,4.07
2023-03-24T04:28:40.532Z,4.22
2023-03-24T04:32:40.637Z,6.9
2023-03-24T04:36:39.677Z,7.97
2023-03-24T04:40:40.457Z,4.37
2023-03-24T04:44:40.509Z,6.3
2023-03-24T04:48:40.517Z,8.52
2023-03-24T04:52:40.538Z,3.5
2023-03-24T04:56:40.505Z,4.43
2023-03-24T05:00:39.611Z,6.78
2023-03-24T05:04:40.781Z,3.78
2023-03-24T05:08:40.454Z,4.25
2023-03-24T05:12:40.401Z,7.43
2023-03-24T05:16:40.395Z,7.2
2023-03-24T05:20:39.985Z,7.87
2023-03-24T05:24:40.517Z,5.22
2023-03-24T05:28:40.568Z,4.72
2023-03-24T05:32:39.516Z,4.62
2023-03-24T05:36:40.669Z,5.35
2023-03-24T05:40:40.243Z,5.28
2023-03-24T05:44:41.120Z,3.87
2023-03-24T05:48:40.522Z,4.97
2023-03-24T05:52:40.893Z,7.95
2023-03-24T05:56:40.307Z,4
2023-03-24T06:00:40.578Z,4.95
2023-03-24T06:04:41.078Z,6.5
2023-03-24T06:08:40.511Z,5.35
2023-03-24T06:12:40.794Z,5.15
2023-03-24T06:16:40.298Z,3.6
2023-03-24T06:20:40.465Z,2.25
2023-03-24T06:24:39.348Z,4.93
2023-03-24T06:28:40.431Z,7.43
2023-03-24T06:32:40.447Z,6.62
2023-03-24T06:36:39.945Z,4.25
2023-03-24T06:40:40.514Z,4.45
2023-03-24T06:44:40.409Z,3.6
2023-03-24T06:48:40.381Z,6.68
2023-03-24T06:52:41.216Z,3.37
2023-03-24T06:56:40.455Z,3.8
2023-03-24T07:00:40.377Z,2.15
2023-03-24T07:04:40.254Z,8.45
2023-03-24T07:08:40.894Z,5.35
2023-03-24T07:12:40.626Z,3.67
2023-03-24T07:16:40.394Z,5.62
2023-03-24T07:20:40.395Z,5.22
2023-03-24T07:24:40.464Z,4.95
2023-03-24T07:28:40.850Z,5.22
2023-03-24T07:32:41.102Z,4.1
2023-03-24T07:36:40.511Z,4.78
2023-03-24T07:40:40.510Z,5.97
2023-03-24T07:44:40.526Z,7.97
2023-03-24T07:48:40.412Z,5.47
2023-03-24T07:52:40.518Z,4.9
2023-03-24T07:56:40.445Z,5.7
2023-03-24T08:00:40.631Z,6.62
2023-03-24T08:04:40.511Z,5.28
2023-03-24T08:08:40.488Z,6.25
2023-03-24T08:12:40.461Z,3.75
2023-03-24T08:16:39.723Z,4.85
2023-03-24T08:20:40.770Z,5.95
2023-03-24T08:24:40.435Z,3.62
2023-03-24T08:28:40.489Z,4.62
2023-03-24T08:32:40.589Z,2.85
2023-03-24T08:36:40.892Z,5.43
2023-03-24T08:40:40.413Z,2.8
2023-03-24T08:44:40.507Z,2.62
2023-03-24T08:48:39.777Z,5.12
2023-03-24T08:52:40.555Z,3.15
2023-03-24T08:56:40.498Z,3.85
2023-03-24T09:00:40.616Z,3.55
2023-03-24T09:04:40.521Z,2.95
2023-03-24T09:08:40.561Z,4.5
2023-03-24T09:12:40.453Z,2
2023-03-24T09:16:39.633Z,3.17
2023-03-24T09:20:40.845Z,2.92
2023-03-24T09:24:40.549Z,2.78
2023-03-24T09:28:40.467Z,3.37
2023-03-24T09:32:40.500Z,2.28
2023-03-24T09:36:40.603Z,2.92
2023-03-24T09:40:40.479Z,1.83
2023-03-24T09:44:40.503Z,3.12
2023-03-24T09:48:40.669Z,3.05
2023-03-24T09:52:40.465Z,5.25
2023-03-24T09:56:40.287Z,4.32
2023-03-24T10:00:40.576Z,3.05
2023-03-24T10:04:40.718Z,3.7
2023-03-24T10:08:40.592Z,2.37
2023-03-24T10:12:40.557Z,1.35
2023-03-24T10:16:40.557Z,1.17
2023-03-24T10:20:40.527Z,1.9
2023-03-24T10:24:40.477Z,2.42
2023-03-24T10:28:40.638Z,1.2
2023-03-24T10:32:39.892Z,2.03
2023-03-24T10:36:40.490Z,0.82
2023-03-24T10:40:40.530Z,1.7
2023-03-24T10:44:40.408Z,1.17
2023-03-24T10:48:39.276Z,1.7
2023-03-24T10:52:40.563Z,1.12
2023-03-24T10:56:40.559Z,1.77
2023-03-24T11:00:42.744Z,1.42
2023-03-24T11:04:40.453Z,1.17
2023-03-24T11:08:40.541Z,1.62
2023-03-24T11:12:40.796Z,2.75
2023-03-24T11:16:40.439Z,3.05
2023-03-24T11:20:40.546Z,3.5
2023-03-24T11:24:40.488Z,3.47
2023-03-24T11:28:40.966Z,6.72
2023-03-24T11:32:40.546Z,2.72
2023-03-24T11:36:40.410Z,3.62
2023-03-24T11:40:40.534Z,1
2023-03-24T11:44:40.477Z,1.62
2023-03-24T11:48:41.984Z,2.55
2023-03-24T11:52:40.789Z,3.62
2023-03-24T11:56:40.693Z,4.37
2023-03-24T12:00:40.449Z,6
2023-03-24T12:04:40.865Z,3.12
2023-03-24T12:08:40.444Z,1.55
2023-03-24T12:12:40.369Z,5.62
2023-03-24T12:16:40.306Z,1.52
2023-03-24T12:20:40.459Z,1.23
2023-03-24T12:24:40.746Z,1.67
2023-03-24T12:28:40.542Z,1.02
2023-03-24T12:32:40.316Z,1.58
2023-03-24T12:36:39.917Z,1.87
2023-03-24T12:40:40.893Z,1.4
2023-03-24T12:44:40.538Z,2.55
2023-03-24T12:48:40.715Z,2.03
2023-03-24T12:52:40.446Z,1.55
2023-03-24T12:56:40.410Z,12.7
2023-03-24T13:00:40.432Z,9.95
2023-03-24T13:04:40.430Z,5.95
2023-03-24T13:08:40.439Z,5.25
2023-03-24T13:12:40.536Z,4.2
2023-03-24T13:16:40.353Z,2.58
2023-03-24T13:20:40.554Z,2.5
2023-03-24T13:24:40.401Z,7.25
2023-03-24T13:28:40.605Z,2.28
2023-03-24T13:32:41.004Z,2.7
2023-03-24T13:36:40.550Z,3.9
2023-03-24T13:40:40.451Z,5.32
2023-03-24T13:44:40.361Z,2.67
2023-03-24T13:48:40.645Z,1.95
2023-03-24T13:52:40.420Z,2.83
2023-03-24T13:56:40.600Z,5.6
2023-03-24T14:00:40.334Z,2.25
2023-03-24T14:04:40.492Z,1.77
2023-03-24T14:08:40.551Z,5.62
2023-03-24T14:12:40.394Z,0.95
2023-03-24T14:16:40.472Z,4.82
2023-03-24T14:20:40.292Z,3.25
2023-03-24T14:24:40.570Z,2.72
2023-03-24T14:28:40.397Z,0.95
2023-03-24T14:32:40.900Z,5.25
2023-03-24T14:36:40.499Z,2.17
2023-03-24T14:40:40.231Z,2.22
2023-03-24T14:44:39.743Z,1.33
2023-03-24T14:48:41.086Z,1.9
2023-03-24T14:52:40.486Z,4.87
2023-03-24T14:56:40.531Z,6.03
2023-03-24T15:00:40.576Z,4
2023-03-24T15:04:40.351Z,4.15
2023-03-24T15:08:40.462Z,0.9
2023-03-24T15:12:40.323Z,4.15
2023-03-24T15:16:40.763Z,4.3
2023-03-24T15:20:40.601Z,8.2
2023-03-24T15:24:40.739Z,4.43
2023-03-24T15:28:41.022Z,7.35
2023-03-24T15:32:40.496Z,5.6
2023-03-24T15:36:40.458Z,5.75
2023-03-24T15:40:40.542Z,5.28
2023-03-24T15:44:40.794Z,4.35
2023-03-24T15:48:40.489Z,5.5
2023-03-24T15:52:40.769Z,5.97
2023-03-24T15:56:39.819Z,4.8
2023-03-24T16:00:40.825Z,4.47
2023-03-24T16:04:40.614Z,4.35
2023-03-24T16:08:40.491Z,5.62
2023-03-24T16:12:40.554Z,4.12
2023-03-24T16:16:40.587Z,3.75
2023-03-24T16:20:40.845Z,4.65
2023-03-24T16:24:40.509Z,6.3
2023-03-24T16:28:40.599Z,11.63
2023-03-24T16:32:40.750Z,4.28
2023-03-24T16:36:40.526Z,4.12
2023-03-24T16:40:40.634Z,8.82
2023-03-24T16:44:40.866Z,7.55
2023-03-24T16:48:40.569Z,6.03
2023-03-24T16:52:40.451Z,7.8
2023-03-24T16:56:40.504Z,6.47
2023-03-24T17:00:40.685Z,6.55
2023-03-24T17:04:40.761Z,8.15
2023-03-24T17:08:40.459Z,6.12
2023-03-24T17:12:40.496Z,3.35
2023-03-24T17:16:41.179Z,6.45
2023-03-24T17:20:40.365Z,3.62
2023-03-24T17:24:40.027Z,9.35
2023-03-24T17:28:40.622Z,7.22
2023-03-24T17:32:40.789Z,4.25
2023-03-24T17:36:40.493Z,9.5
2023-03-24T17:40:40.544Z,5.4
2023-03-24T17:44:40.188Z,4.35
2023-03-24T17:48:40.529Z,6.18
2023-03-24T17:52:40.794Z,7.03
2023-03-24T17:56:40.681Z,4.32
2023-03-24T18:00:40.520Z,8.77
2023-03-24T18:04:40.551Z,7.68
2023-03-24T18:08:40.530Z,8.38
2023-03-24T18:12:40.469Z,7.07
2023-03-24T18:16:40.369Z,6.35
2023-03-24T18:20:40.540Z,4.57
2023-03-24T18:24:40.564Z,12.27
2023-03-24T18:28:40.477Z,7.9
2023-03-24T18:32:40.239Z,7.12
2023-03-24T18:36:40.443Z,7.53
2023-03-24T18:40:40.672Z,8.25
2023-03-24T18:44:40.757Z,8.13
2023-03-24T18:48:40.523Z,13.73
2023-03-24T18:52:40.417Z,10.95
2023-03-24T18:56:40.338Z,13.4
2023-03-24T19:00:40.497Z,8.65
2023-03-24T19:04:41.546Z,7.18
2023-03-24T19:08:40.813Z,4.25
2023-03-24T19:12:40.606Z,5.82
2023-03-24T19:16:40.626Z,15.38
2023-03-24T19:20:40.628Z,9.8
2023-03-24T19:24:40.594Z,8.35
2023-03-24T19:28:40.748Z,9.43
2023-03-24T19:32:40.507Z,6.7
2023-03-24T19:36:40.563Z,10.5
2023-03-24T19:40:40.514Z,7.68
2023-03-24T19:44:40.494Z,13.62
2023-03-24T19:48:40.431Z,10.7
2023-03-24T19:52:40.630Z,12.05
2023-03-24T19:56:40.678Z,10.27
2023-03-24T20:00:40.205Z,11.27
2023-03-24T20:04:39.419Z,13.07
2023-03-24T20:08:40.834Z,11.2
2023-03-24T20:12:40.726Z,11.45
2023-03-24T20:16:40.641Z,10.45
2023-03-24T20:20:40.432Z,11.32
2023-03-24T20:24:40.445Z,6.6
2023-03-24T20:28:40.562Z,14.65
2023-03-24T20:32:40.595Z,9.02
2023-03-24T20:36:40.513Z,12.88
2023-03-24T20:40:40.481Z,10.75
2023-03-24T20:44:40.423Z,9.88
2023-03-24T20:48:40.676Z,12.57
2023-03-24T20:52:40.573Z,12.3
2023-03-24T20:56:40.446Z,10.32
2023-03-24T21:00:40.655Z,10.05
2023-03-24T21:04:40.859Z,8.63
2023-03-24T21:08:40.533Z,8.32
2023-03-24T21:12:53.145Z,9.3
2023-03-24T21:16:41.178Z,6.55
2023-03-24T21:20:40.772Z,8.25
2023-03-24T21:24:40.450Z,12.18
2023-03-24T21:28:40.677Z,10.13
2023-03-24T21:32:40.495Z,7.35
2023-03-24T21:36:40.721Z,8
2023-03-24T21:40:40.825Z,9.65
2023-03-24T21:44:40.468Z,11.18
2023-03-24T21:48:41.100Z,4
2023-03-24T21:52:40.774Z,8.55
2023-03-24T21:56:40.572Z,4.72
2023-03-24T22:00:40.474Z,7.8
2023-03-24T22:04:40.379Z,4.4
2023-03-24T22:08:40.514Z,5.57
2023-03-24T22:12:41.049Z,9.6
2023-03-24T22:16:40.509Z,6.57
2023-03-24T22:20:40.750Z,5.97
2023-03-24T22:24:40.651Z,4.57
2023-03-24T22:28:40.406Z,6.45
2023-03-24T22:32:40.691Z,5.3
2023-03-24T22:36:40.658Z,5.37
2023-03-24T22:40:39.547Z,5.6
2023-03-24T22:44:41.833Z,6
2023-03-24T22:48:40.582Z,3.03
2023-03-24T22:52:40.456Z,5.25
2023-03-24T22:56:40.406Z,8.48
2023-03-24T23:00:39.873Z,5.78
2023-03-24T23:04:40.634Z,5.72
2023-03-24T23:08:40.486Z,6.22
2023-03-24T23:12:40.597Z,5.35
2023-03-24T23:16:40.656Z,4.57
2023-03-24T23:20:40.415Z,5.35
2023-03-24T23:24:40.467Z,4.35
2023-03-24T23:28:40.635Z,7.15
2023-03-24T23:32:40.439Z,5.57
2023-03-24T23:36:40.518Z,2.15
2023-03-24T23:40:40.549Z,7.1
2023-03-24T23:44:40.747Z,8
2023-03-24T23:48:40.435Z,4.57
2023-03-24T23:52:40.265Z,5.2
2023-03-24T23:56:40.971Z,6
